createdAt,value
2019-03-10T00:01:17.983Z,17.00
2019-03-10T00:03:58.334Z,19.53
2019-03-10T00:06:38.864Z,22.70
2019-03-10T00:09:19.676Z,20.63
2019-03-10T00:12:00.779Z,23.90
2019-03-10T00:14:40.937Z,28.57
2019-03-10T00:17:21.906Z,29.93
2019-03-10T00:20:02.846Z,31.47
2019-03-10T00:22:44.034Z,34.03
2019-03-10T00:25:24.370Z,35.83
2019-03-10T00:28:05.230Z,40.70
2019-03-10T00:30:46.006Z,42.40
2019-03-10T00:33:26.982Z,43.77
2019-03-10T00:36:07.428Z,46.53
2019-03-10T00:38:48.523Z,51.17
2019-03-10T00:41:29.594Z,53.60
2019-03-10T00:44:10.222Z,56.27
2019-03-10T00:46:50.448Z,56.77
2019-03-10T00:49:31.503Z,59.73
2019-03-10T00:52:12.383Z,65.07
2019-03-10T00:54:53.442Z,72.70
2019-03-10T00:57:34.221Z,75.87
2019-03-10T01:00:15.286Z,79.67
2019-03-10T01:02:55.538Z,73.63
2019-03-10T01:05:36.074Z,82.73
2019-03-10T01:08:17.037Z,84.30
2019-03-10T01:10:58.211Z,85.50
2019-03-10T01:13:39.275Z,85.40
2019-03-10T01:16:20.540Z,84.17
2019-03-10T01:19:01.164Z,85.53
2019-03-10T01:21:42.465Z,88.03
2019-03-10T01:24:23.326Z,83.37
2019-03-10T01:27:04.590Z,85.67
2019-03-10T01:29:45.576Z,80.07
2019-03-10T01:32:26.358Z,80.80
2019-03-10T01:35:07.324Z,92.53
2019-03-10T01:37:48.234Z,89.43
2019-03-10T01:40:28.941Z,88.30
2019-03-10T01:43:09.294Z,79.67
2019-03-10T01:45:49.646Z,84.80
2019-03-10T01:48:29.941Z,83.90
2019-03-10T01:51:11.186Z,81.03
2019-03-10T01:53:51.646Z,81.67
2019-03-10T01:56:31.832Z,86.03
2019-03-10T01:59:12.238Z,85.97
2019-03-10T02:01:53.399Z,76.40
2019-03-10T02:04:34.302Z,79.13
2019-03-10T02:07:15.648Z,71.67
2019-03-10T02:09:56.760Z,84.80
2019-03-10T02:12:37.433Z,78.13
2019-03-10T02:15:18.493Z,74.43
2019-03-10T02:17:59.178Z,83.53
2019-03-10T02:20:39.930Z,84.60
2019-03-10T02:23:20.486Z,72.10
2019-03-10T02:26:01.570Z,71.17
2019-03-10T02:28:42.290Z,74.33
2019-03-10T02:31:22.807Z,73.50
2019-03-10T02:34:04.017Z,70.50
2019-03-10T02:36:45.057Z,72.70
2019-03-10T02:39:26.119Z,70.00
2019-03-10T02:42:06.698Z,65.73
2019-03-10T02:44:47.855Z,63.60
2019-03-10T02:47:28.486Z,66.67
2019-03-10T02:50:09.507Z,65.17
2019-03-10T02:52:50.698Z,60.23
2019-03-10T02:55:31.922Z,57.60
2019-03-10T02:58:13.138Z,52.83
2019-03-10T03:00:54.063Z,59.35
2019-03-10T03:03:34.954Z,57.47
2019-03-10T03:06:15.954Z,51.93
2019-03-10T03:08:57.114Z,57.20
2019-03-10T03:11:38.330Z,53.73
2019-03-10T03:14:19.353Z,52.27
2019-03-10T03:17:00.394Z,48.58
2019-03-10T03:19:41.455Z,44.40
2019-03-10T03:22:22.858Z,44.08
2019-03-10T03:25:04.102Z,43.43
2019-03-10T03:27:44.310Z,41.20
2019-03-10T03:30:25.220Z,41.20
2019-03-10T03:33:06.247Z,39.97
2019-03-10T03:35:46.423Z,35.40
2019-03-10T03:38:26.668Z,34.97
2019-03-10T03:41:07.807Z,34.17
2019-03-10T03:43:48.896Z,30.17
2019-03-10T03:46:29.179Z,32.38
2019-03-10T03:49:10.395Z,27.45
2019-03-10T03:51:51.284Z,28.53
2019-03-10T03:54:32.090Z,25.83
2019-03-10T03:57:12.495Z,26.83
2019-03-10T03:59:53.525Z,23.97
2019-03-10T04:02:38.528Z,24.43
2019-03-10T04:05:19.126Z,21.63
2019-03-10T04:07:59.399Z,20.80
2019-03-10T04:10:40.520Z,20.33
2019-03-10T04:13:21.694Z,19.30
2019-03-10T04:16:03.165Z,17.10
2019-03-10T04:18:43.550Z,16.57
2019-03-10T04:21:24.640Z,16.97
2019-03-10T04:24:04.927Z,14.73
2019-03-10T04:26:45.700Z,14.90
2019-03-10T04:29:25.951Z,14.50
2019-03-10T04:32:07.125Z,12.03
2019-03-10T04:34:48.118Z,12.70
2019-03-10T04:37:29.265Z,11.97
2019-03-10T04:40:09.594Z,10.50
2019-03-10T04:42:50.130Z,10.77
2019-03-10T04:45:30.953Z,9.60
2019-03-10T04:48:11.986Z,9.93
2019-03-10T04:50:52.918Z,8.43
2019-03-10T04:53:33.963Z,8.97
2019-03-10T04:56:33.717Z,8.33
2019-03-10T04:59:13.979Z,7.60
2019-03-10T05:01:55.134Z,6.70
2019-03-10T05:04:35.875Z,6.67
2019-03-10T05:07:16.405Z,6.30
2019-03-10T05:09:57.286Z,6.00
2019-03-10T05:12:38.170Z,5.47
2019-03-10T05:15:18.862Z,5.03
2019-03-10T05:18:00.099Z,4.80
2019-03-10T05:20:40.758Z,5.13
2019-03-10T05:23:21.879Z,4.13
2019-03-10T05:26:02.535Z,4.27
2019-03-10T05:28:43.635Z,3.87
2019-03-10T05:31:24.606Z,3.73
2019-03-10T05:34:05.681Z,3.53
2019-03-10T05:36:46.816Z,3.37
2019-03-10T05:39:27.534Z,2.97
2019-03-10T05:42:08.478Z,3.30
2019-03-10T05:44:49.400Z,3.17
2019-03-10T05:47:30.138Z,3.47
2019-03-10T05:50:11.350Z,2.97
2019-03-10T05:52:52.174Z,5.03
2019-03-10T05:55:33.314Z,4.13
2019-03-10T05:58:14.128Z,3.43
2019-03-10T06:00:55.257Z,2.33
2019-03-10T06:03:35.867Z,3.57
2019-03-10T06:06:16.794Z,4.07
2019-03-10T06:08:58.002Z,3.93
2019-03-10T06:11:38.862Z,3.90
2019-03-10T06:14:19.482Z,2.47
2019-03-10T06:17:00.205Z,2.57
2019-03-10T06:19:41.242Z,3.30
2019-03-10T06:22:22.224Z,2.97
2019-03-10T06:25:03.398Z,2.23
2019-03-10T06:27:44.297Z,2.30
2019-03-10T06:30:25.409Z,2.13
2019-03-10T06:33:06.289Z,2.97
2019-03-10T06:35:47.230Z,2.63
2019-03-10T06:38:27.886Z,2.17
2019-03-10T06:41:08.671Z,2.63
2019-03-10T06:43:48.862Z,2.40
2019-03-10T06:46:29.998Z,2.50
2019-03-10T06:49:10.865Z,2.30
2019-03-10T06:51:51.682Z,1.70
2019-03-10T06:54:31.962Z,2.27
2019-03-10T06:57:13.046Z,3.60
2019-03-10T06:59:54.040Z,2.33
2019-03-10T07:02:34.849Z,3.20
2019-03-10T07:05:15.025Z,2.03
2019-03-10T07:07:55.717Z,2.97
2019-03-10T07:10:36.741Z,2.50
2019-03-10T07:13:17.623Z,1.90
2019-03-10T07:15:58.478Z,2.33
2019-03-10T07:18:39.498Z,2.33
2019-03-10T07:21:19.708Z,2.73
2019-03-10T07:24:00.045Z,2.20
2019-03-10T07:26:40.705Z,2.73
2019-03-10T07:29:26.033Z,2.63
2019-03-10T07:32:09.039Z,2.57
2019-03-10T07:34:53.930Z,2.30
2019-03-10T07:37:53.583Z,2.13
2019-03-10T07:40:36.571Z,2.57
2019-03-10T07:43:21.778Z,2.87
2019-03-10T07:46:21.707Z,2.47
2019-03-10T07:49:22.079Z,2.73
2019-03-10T07:52:04.890Z,2.07
2019-03-10T07:55:04.481Z,2.90
2019-03-10T07:57:49.913Z,2.63
2019-03-10T08:00:49.563Z,2.37
2019-03-10T08:03:49.073Z,2.47
2019-03-10T08:06:34.114Z,2.80
2019-03-10T08:09:16.218Z,2.27
2019-03-10T08:12:01.826Z,2.90
2019-03-10T08:15:02.071Z,2.67
2019-03-10T08:18:01.751Z,1.83
2019-03-10T08:21:01.291Z,2.43
2019-03-10T08:23:46.369Z,2.20
2019-03-10T08:26:46.032Z,1.73
2019-03-10T08:29:31.770Z,1.80
2019-03-10T08:32:13.921Z,2.60
2019-03-10T08:34:56.078Z,3.43
2019-03-10T08:37:40.862Z,1.77
2019-03-10T08:40:40.553Z,2.17
2019-03-10T08:43:40.557Z,1.50
2019-03-10T08:46:22.615Z,2.33
2019-03-10T08:49:22.753Z,1.73
2019-03-10T08:52:08.053Z,1.57
2019-03-10T08:54:49.870Z,1.62
2019-03-10T08:57:50.181Z,1.53
2019-03-10T09:00:32.130Z,2.00
2019-03-10T09:03:14.401Z,2.20
2019-03-10T09:05:56.340Z,4.60
2019-03-10T09:08:41.034Z,1.30
2019-03-10T09:11:40.809Z,2.13
2019-03-10T09:14:23.090Z,1.80
2019-03-10T09:17:05.942Z,2.27
2019-03-10T09:20:05.350Z,2.93
2019-03-10T09:22:50.749Z,4.53
2019-03-10T09:25:32.748Z,1.90
2019-03-10T09:28:32.265Z,213.03
2019-03-10T09:31:14.862Z,375.10
2019-03-10T09:37:10.036Z,120.62
2019-03-10T09:39:52.247Z,80.37
2019-03-10T09:42:51.739Z,94.90
2019-03-10T09:48:46.582Z,67.73
2019-03-10T09:51:45.965Z,64.43
2019-03-10T09:54:45.931Z,63.73
2019-03-10T09:57:28.917Z,51.80
2019-03-10T10:06:25.580Z,44.53
2019-03-10T10:09:32.699Z,44.63
2019-03-10T10:12:39.855Z,48.60
2019-03-10T10:18:55.222Z,45.77
2019-03-10T10:22:02.094Z,43.47
2019-03-10T10:25:08.994Z,28.73
2019-03-10T10:31:02.777Z,18.73
2019-03-10T10:33:45.126Z,17.93
2019-03-10T10:36:30.734Z,23.50
2019-03-10T10:39:30.243Z,19.60
2019-03-10T10:42:30.102Z,16.90
2019-03-10T10:45:29.698Z,21.23
2019-03-10T10:48:15.345Z,24.00
2019-03-10T10:51:00.427Z,18.20
2019-03-10T10:53:42.685Z,17.77
2019-03-10T10:56:42.114Z,22.57
2019-03-10T10:59:41.648Z,33.97
2019-03-10T11:02:41.163Z,24.50
2019-03-10T11:05:41.314Z,23.57
2019-03-10T11:08:24.038Z,24.67
2019-03-10T11:11:06.063Z,23.70
2019-03-10T11:14:05.668Z,24.87
2019-03-10T11:17:05.847Z,19.30
2019-03-10T11:20:05.758Z,26.45
2019-03-10T11:23:07.203Z,17.87
2019-03-10T11:25:52.735Z,27.95
2019-03-10T11:28:52.528Z,25.88
2019-03-10T11:31:52.123Z,21.15
2019-03-10T11:34:37.387Z,38.70
2019-03-10T11:37:36.974Z,25.62
2019-03-10T11:40:21.829Z,31.90
2019-03-10T11:43:04.045Z,30.02
2019-03-10T11:46:04.445Z,22.85
2019-03-10T11:48:46.605Z,15.53
2019-03-10T11:51:46.249Z,22.90
2019-03-10T11:54:28.374Z,20.20
2019-03-10T11:57:14.026Z,17.65
2019-03-10T12:00:14.510Z,23.07
2019-03-10T12:03:00.070Z,27.75
2019-03-10T12:05:45.486Z,23.00
2019-03-10T12:08:28.512Z,22.62
2019-03-10T12:11:08.681Z,28.10
2019-03-10T12:13:49.769Z,20.33
2019-03-10T12:16:31.339Z,23.42
2019-03-10T12:19:11.846Z,20.75
2019-03-10T12:21:52.939Z,92.78
2019-03-10T12:24:34.050Z,21.13
2019-03-10T12:27:15.065Z,27.77
2019-03-10T12:29:56.254Z,21.12
2019-03-10T12:32:37.175Z,19.65
2019-03-10T12:35:18.158Z,78.97
2019-03-10T12:37:58.418Z,18.82
2019-03-10T12:40:39.066Z,27.25
2019-03-10T12:43:19.958Z,39.08
2019-03-10T12:46:00.729Z,47.98
2019-03-10T12:48:41.056Z,88.00
2019-03-10T12:51:22.115Z,332.62
2019-03-10T12:54:03.588Z,100.72
2019-03-10T12:56:44.178Z,34.88
2019-03-10T12:59:25.294Z,78.72
2019-03-10T13:02:06.401Z,69.35
2019-03-10T13:04:46.810Z,106.12
2019-03-10T13:07:27.660Z,116.37
2019-03-10T13:10:08.563Z,106.73
2019-03-10T13:19:03.354Z,80.70
2019-03-10T13:24:49.922Z,89.50
2019-03-10T13:27:30.887Z,164.30
2019-03-10T13:30:11.997Z,55.43
2019-03-10T13:32:53.416Z,50.23
2019-03-10T13:38:52.815Z,111.75
2019-03-10T13:41:33.889Z,97.37
2019-03-10T13:44:14.209Z,74.42
2019-03-10T13:50:00.486Z,61.00
2019-03-10T13:52:41.623Z,91.85
2019-03-10T13:55:23.154Z,71.00
2019-03-10T13:58:03.393Z,58.52
2019-03-10T14:00:44.338Z,79.93
2019-03-10T14:03:24.948Z,61.30
2019-03-10T14:06:05.949Z,91.67
2019-03-10T14:08:46.843Z,171.57
2019-03-10T14:11:27.806Z,74.72
2019-03-10T14:14:08.045Z,78.10
2019-03-10T14:16:49.401Z,74.93
2019-03-10T14:19:30.259Z,82.80
2019-03-10T14:22:10.533Z,91.17
2019-03-10T14:24:51.113Z,45.52
2019-03-10T14:27:32.178Z,39.58
2019-03-10T14:30:13.253Z,121.03
2019-03-10T14:32:53.930Z,49.20
2019-03-10T14:35:34.926Z,84.77
2019-03-10T14:38:16.043Z,46.20
2019-03-10T14:40:56.875Z,35.10
2019-03-10T14:43:37.753Z,88.52
2019-03-10T14:46:18.997Z,54.75
2019-03-10T14:48:59.733Z,208.90
2019-03-10T14:51:40.782Z,111.53
2019-03-10T14:54:21.750Z,83.53
2019-03-10T14:57:02.832Z,322.67
2019-03-10T14:59:44.077Z,178.10
2019-03-10T15:02:26.991Z,127.50
2019-03-10T15:05:07.778Z,91.00
2019-03-10T15:07:48.446Z,72.13
2019-03-10T15:10:29.149Z,73.07
2019-03-10T15:13:11.258Z,56.13
2019-03-10T15:15:51.730Z,63.87
2019-03-10T15:18:31.998Z,47.10
2019-03-10T15:21:12.327Z,76.57
2019-03-10T15:23:53.628Z,59.73
2019-03-10T15:26:44.962Z,39.98
2019-03-10T15:29:17.059Z,69.00
2019-03-10T15:31:57.544Z,54.30
2019-03-10T15:34:38.546Z,42.20
2019-03-10T15:37:19.130Z,66.55
2019-03-10T15:39:59.954Z,58.60
2019-03-10T15:42:40.159Z,65.95
2019-03-10T15:45:20.773Z,38.95
2019-03-10T15:48:02.209Z,44.43
2019-03-10T15:50:43.115Z,55.90
2019-03-10T15:53:24.222Z,99.05
2019-03-10T15:56:04.983Z,41.80
2019-03-10T15:58:45.565Z,37.90
2019-03-10T16:01:26.318Z,33.33
2019-03-10T16:04:07.432Z,29.92
2019-03-10T16:06:48.353Z,37.95
2019-03-10T16:09:29.070Z,34.47
2019-03-10T16:12:10.008Z,32.03
2019-03-10T16:14:50.774Z,40.17
2019-03-10T16:17:30.979Z,38.17
2019-03-10T16:20:11.423Z,31.27
2019-03-10T16:22:52.368Z,28.50
2019-03-10T16:25:32.633Z,30.30
2019-03-10T16:28:13.521Z,31.43
2019-03-10T16:30:54.331Z,40.60
2019-03-10T16:33:35.402Z,46.37
2019-03-10T16:36:16.438Z,48.33
2019-03-10T16:38:56.666Z,43.93
2019-03-10T16:41:37.491Z,32.03
2019-03-10T16:44:18.685Z,38.77
2019-03-10T16:46:59.750Z,30.23
2019-03-10T16:49:41.062Z,33.50
2019-03-10T16:52:21.831Z,41.10
2019-03-10T16:55:02.938Z,34.13
2019-03-10T16:57:43.129Z,35.50
2019-03-10T17:00:24.222Z,35.23
2019-03-10T17:03:05.622Z,22.77
2019-03-10T17:05:46.854Z,24.90
2019-03-10T17:08:27.542Z,23.40
2019-03-10T17:11:08.279Z,218.80
2019-03-10T17:13:49.189Z,154.67
2019-03-10T17:16:30.494Z,148.87
2019-03-10T17:19:11.047Z,144.57
2019-03-10T17:21:52.013Z,133.37
2019-03-10T17:24:32.310Z,113.30
2019-03-10T17:27:13.251Z,108.17
2019-03-10T17:29:54.286Z,121.90
2019-03-10T17:32:37.203Z,104.30
2019-03-10T17:35:17.443Z,115.37
2019-03-10T17:37:58.878Z,88.40
2019-03-10T17:40:39.549Z,96.77
2019-03-10T17:43:20.617Z,59.87
2019-03-10T17:46:01.770Z,59.13
2019-03-10T17:51:51.489Z,77.50
2019-03-10T17:54:32.605Z,66.50
2019-03-10T17:57:13.906Z,59.20
2019-03-10T17:59:54.807Z,49.20
2019-03-10T18:02:35.499Z,58.43
2019-03-10T18:05:16.270Z,52.60
2019-03-10T18:07:57.530Z,44.97
2019-03-10T18:10:38.570Z,41.27
2019-03-10T18:13:19.634Z,41.17
2019-03-10T18:16:00.850Z,43.00
2019-03-10T18:18:41.907Z,41.10
2019-03-10T18:21:22.882Z,35.67
2019-03-10T18:24:04.074Z,38.77
2019-03-10T18:26:45.229Z,28.33
2019-03-10T18:29:26.046Z,45.43
2019-03-10T18:32:06.859Z,34.37
2019-03-10T18:34:47.886Z,30.00
2019-03-10T18:37:31.123Z,34.10
2019-03-10T18:40:10.912Z,37.30
2019-03-10T18:42:51.925Z,30.80
2019-03-10T18:45:32.938Z,26.67
2019-03-10T18:48:13.250Z,27.43
2019-03-10T18:50:54.606Z,27.13
2019-03-10T18:53:35.682Z,27.27
2019-03-10T18:56:15.862Z,26.33
2019-03-10T18:58:56.117Z,29.50
2019-03-10T19:01:36.682Z,27.20
2019-03-10T19:04:17.453Z,24.50
2019-03-10T19:06:58.517Z,24.70
2019-03-10T19:09:39.605Z,20.87
2019-03-10T19:12:20.953Z,21.30
2019-03-10T19:15:01.954Z,22.33
2019-03-10T19:17:42.748Z,18.40
2019-03-10T19:20:23.721Z,17.40
2019-03-10T19:23:03.918Z,20.80
2019-03-10T19:25:44.274Z,20.07
2019-03-10T19:28:24.998Z,20.53
2019-03-10T19:31:06.398Z,20.10
2019-03-10T19:33:47.153Z,16.50
2019-03-10T19:36:28.362Z,16.33
2019-03-10T19:39:09.325Z,17.43
2019-03-10T19:45:08.883Z,21.13
2019-03-10T19:47:49.569Z,15.50
2019-03-10T19:50:30.541Z,14.17
2019-03-10T19:53:11.690Z,18.50
2019-03-10T19:55:52.611Z,14.30
2019-03-10T19:58:33.753Z,15.67
2019-03-10T20:01:14.729Z,17.63
2019-03-10T20:07:00.821Z,10.47
2019-03-10T20:09:41.590Z,11.63
2019-03-10T20:12:22.882Z,12.03
2019-03-10T20:14:51.390Z,12.30
2019-03-10T20:17:19.643Z,12.00
2019-03-10T20:19:47.908Z,12.77
2019-03-10T20:22:16.144Z,16.03
2019-03-10T20:24:44.661Z,13.60
2019-03-10T20:27:13.141Z,9.77
2019-03-10T20:29:41.413Z,13.63
2019-03-10T20:32:14.005Z,9.57
2019-03-10T20:34:40.145Z,12.27
2019-03-10T20:37:08.486Z,10.87
2019-03-10T20:39:36.971Z,9.30
2019-03-10T20:42:05.751Z,11.33
2019-03-10T20:44:34.060Z,11.73
2019-03-10T20:47:02.382Z,9.93
2019-03-10T20:49:30.684Z,8.17
2019-03-10T20:51:58.944Z,11.13
2019-03-10T20:54:27.186Z,8.60
2019-03-10T20:56:55.456Z,10.67
2019-03-10T20:59:23.700Z,9.40
2019-03-10T21:01:51.971Z,8.90
2019-03-10T21:04:22.741Z,10.63
2019-03-10T21:06:50.237Z,9.87
2019-03-10T21:09:18.474Z,7.37
2019-03-10T21:11:46.733Z,8.00
2019-03-10T21:14:15.050Z,9.50
2019-03-10T21:16:43.538Z,10.47
2019-03-10T21:19:11.806Z,8.97
2019-03-10T21:21:40.053Z,7.33
2019-03-10T21:24:08.320Z,12.27
2019-03-10T21:26:36.562Z,9.10
2019-03-10T21:29:04.823Z,6.23
2019-03-10T21:31:33.089Z,11.03
2019-03-10T21:34:01.382Z,7.67
2019-03-10T21:36:29.693Z,5.60
2019-03-10T21:38:57.937Z,8.37
2019-03-10T21:41:26.201Z,8.10
2019-03-10T21:43:54.524Z,5.37
2019-03-10T21:46:22.917Z,7.93
2019-03-10T21:48:51.275Z,6.30
2019-03-10T21:51:19.536Z,7.57
2019-03-10T21:53:48.030Z,10.53
2019-03-10T21:56:16.430Z,7.97
2019-03-10T21:58:44.665Z,7.03
2019-03-10T22:01:12.910Z,6.90
2019-03-10T22:03:41.421Z,6.43
2019-03-10T22:06:09.660Z,5.17
2019-03-10T22:08:37.925Z,7.03
2019-03-10T22:11:06.197Z,6.87
2019-03-10T22:13:34.443Z,7.10
2019-03-10T22:16:02.689Z,6.40
2019-03-10T22:18:30.966Z,8.30
2019-03-10T22:20:59.301Z,4.63
2019-03-10T22:23:27.545Z,5.40
2019-03-10T22:25:55.866Z,6.93
2019-03-10T22:28:24.204Z,5.80
2019-03-10T22:30:52.490Z,5.93
2019-03-10T22:33:20.733Z,4.87
2019-03-10T22:35:49.002Z,6.07
2019-03-10T22:38:17.250Z,4.27
2019-03-10T22:40:45.510Z,4.93
2019-03-10T22:43:13.757Z,4.97
2019-03-10T22:45:42.269Z,9.30
2019-03-10T22:48:10.514Z,4.67
2019-03-10T22:50:38.786Z,4.10
2019-03-10T22:53:07.265Z,5.47
2019-03-10T22:55:35.533Z,5.40
2019-03-10T22:58:03.825Z,5.33
2019-03-10T23:00:39.550Z,6.33
2019-03-10T23:03:07.798Z,5.93
2019-03-10T23:05:36.074Z,8.00
2019-03-10T23:08:04.334Z,7.07
2019-03-10T23:10:32.577Z,8.40
2019-03-10T23:13:00.841Z,10.20
2019-03-10T23:15:29.086Z,10.40
2019-03-10T23:17:57.365Z,12.23
2019-03-10T23:20:25.631Z,11.20
2019-03-10T23:22:53.953Z,12.00
2019-03-10T23:25:22.480Z,12.50
2019-03-10T23:27:50.725Z,12.53
2019-03-10T23:30:19.273Z,13.63
2019-03-10T23:32:47.785Z,14.43
2019-03-10T23:35:16.313Z,14.87
2019-03-10T23:37:44.638Z,15.43
2019-03-10T23:40:17.768Z,15.77
2019-03-10T23:42:46.030Z,15.53
2019-03-10T23:45:15.338Z,17.10
2019-03-10T23:47:44.460Z,17.30
2019-03-10T23:50:16.930Z,18.17
2019-03-10T23:52:45.234Z,19.97
2019-03-10T23:55:14.049Z,20.30
2019-03-10T23:57:42.331Z,22.67
